메인 페이지
METAR-TAF:

METAR-TAF

공항 :

수체아바, 루마니아

위도: 47-39N, 경도: 026-15E, 고도: 351m

현재 날씨관측

예보는 26분 전, 14:30시(UTC)에 발표되었습니다.
4kt
온도 17°C
습도 55%
기압 1019 hPa
시정 10km 이상
1500m 미만 상공 구름 및 적란운 없음

METAR: LRSV 221430Z 10004KT CAVOK 17/08 Q1019

시각: 17:56 (14:56 UTC)

예보

예보는 56분 전, 14:00시(UTC)에 발표되었습니다.
예보 대상 시간: 22일 15시부터 23일 00시까지 (UTC)
동남동6kt
시정 10km 이상
1500m 미만 상공 구름 및 적란운 없음
일시적
22일 22시부터 23일 00시까지 (UTC)
시정: 5000m
박무

TAF: LRSV 221400Z 2215/2300 11006KT CAVOK TEMPO 2222/2300 5000 BR

4,000개 이상의 공항 관측 자료 및 예보 (METAR 및 TAF 보고).

지도상에서 검색 가능한 기상관측소가 노란 점과 빨간 점으로 표시되어 있습니다.

기상관측소 명을 보려면 표시 위로 마우스를 이동하세요.

날씨 관측과 예보를 보려면 클릭하세요.

지도 변경 : 확대하려면 엑스 표시가 있는 녹색 버튼, 축소하려면 빼기 표시가 있는 녹색 버튼, 다음 페이지의 지도를 보려면 녹색 화살표를 클릭하세요.


METAR-TAF: